Time;durP1;ratioP1;P1;durP2;ratioP2;P2;SDS_P1;SDS_P2;PMS_P1;PMS_P2;Temp;Humidity;BMP_temperature;BMP_pressure;BME280_temperature;BME280_humidity;BME280_pressure;Samples;Min_cycle;Max_cycle;Signal;HPM_P1;HPM_P2
2021/04/14 00:02:19;;;;;;;2.27;1.00;;;3.60;69.70;;;;;;4878938;29;20041;-73
2021/04/14 00:04:46;;;;;;;3.13;1.07;;;3.70;69.80;;;;;;4877063;29;20040;-74
2021/04/14 00:07:14;;;;;;;2.80;0.93;;;3.70;69.80;;;;;;4882040;29;20449;-73
2021/04/14 00:09:41;;;;;;;2.83;0.90;;;3.70;69.80;;;;;;4891004;29;20051;-73
2021/04/14 00:12:10;;;;;;;3.10;1.20;;;3.80;69.90;;;;;;4898423;29;20424;-73
2021/04/14 00:14:37;;;;;;;2.10;1.07;;;3.80;69.90;;;;;;4881293;29;20545;-73
2021/04/14 00:17:03;;;;;;;2.83;1.03;;;3.80;69.90;;;;;;4880267;29;20040;-74
2021/04/14 00:19:30;;;;;;;5.17;1.33;;;3.90;69.90;;;;;;4876378;29;20123;-73
2021/04/14 00:21:58;;;;;;;2.50;1.00;;;3.90;70.00;;;;;;4881624;29;20418;-73
2021/04/14 00:24:25;;;;;;;2.13;1.00;;;4.00;70.00;;;;;;4880727;29;20088;-73
2021/04/14 00:26:52;;;;;;;3.03;1.30;;;4.00;70.00;;;;;;4858109;29;20045;-73
2021/04/14 00:29:19;;;;;;;3.37;1.40;;;4.00;70.00;;;;;;4855329;29;20136;-73
2021/04/14 00:31:46;;;;;;;2.90;1.20;;;4.00;70.00;;;;;;4862403;29;20037;-74
2021/04/14 00:34:19;;;;;;;3.53;1.03;;;4.10;70.20;;;;;;4861221;29;20497;-71
2021/04/14 00:36:48;;;;;;;2.72;0.90;;;4.10;70.30;;;;;;4860866;29;20558;-71
2021/04/14 00:39:19;;;;;;;2.93;0.90;;;4.10;70.20;;;;;;4875869;29;20446;-72
2021/04/14 00:41:47;;;;;;;2.00;0.80;;;4.20;70.30;;;;;;4862355;29;20096;-74
2021/04/14 00:44:16;;;;;;;3.67;1.00;;;4.20;70.40;;;;;;4878719;29;20049;-73
2021/04/14 00:46:42;;;;;;;1.87;0.67;;;4.20;70.40;;;;;;4878748;29;20037;-74
2021/04/14 00:49:12;;;;;;;2.27;0.90;;;4.20;70.40;;;;;;4846502;29;20405;-73
2021/04/14 00:51:40;;;;;;;2.67;0.97;;;4.30;70.40;;;;;;4877592;29;20037;-74
2021/04/14 00:54:13;;;;;;;3.50;1.10;;;4.30;70.40;;;;;;4878613;29;20575;-73
2021/04/14 00:56:41;;;;;;;1.70;0.80;;;4.30;70.50;;;;;;4878649;29;20503;-74
2021/04/14 00:59:09;;;;;;;2.87;0.93;;;4.30;70.60;;;;;;4874370;29;20118;-73
2021/04/14 01:01:35;;;;;;;2.67;1.00;;;4.30;70.70;;;;;;4873332;29;20427;-74
2021/04/14 01:04:02;;;;;;;2.10;1.00;;;4.30;70.70;;;;;;4878453;29;20045;-73
2021/04/14 01:06:29;;;;;;;4.43;1.10;;;4.30;70.80;;;;;;4874419;29;20037;-74
2021/04/14 01:08:58;;;;;;;2.03;0.80;;;4.40;71.00;;;;;;4868336;29;20049;-74
2021/04/14 01:11:27;;;;;;;3.10;1.20;;;4.40;71.00;;;;;;4861892;29;20049;-73
2021/04/14 01:13:54;;;;;;;2.37;1.03;;;4.40;71.10;;;;;;4862138;29;20053;-73
2021/04/14 01:16:23;;;;;;;2.27;1.10;;;4.40;71.10;;;;;;4874424;29;20048;-73
2021/04/14 01:18:49;;;;;;;1.63;0.70;;;4.40;71.20;;;;;;4863749;29;20443;-73
2021/04/14 01:21:36;;;;;;;2.53;0.83;;;4.40;71.30;;;;;;4875425;29;20068;-74
2021/04/14 01:24:14;;;;;;;1.80;0.90;;;4.40;71.30;;;;;;4877415;29;20041;-73
2021/04/14 01:26:41;;;;;;;1.70;0.70;;;4.40;71.30;;;;;;4894793;29;20127;-74
2021/04/14 01:29:09;;;;;;;2.70;0.93;;;4.40;71.40;;;;;;4896502;29;20044;-74
2021/04/14 01:31:36;;;;;;;2.67;0.80;;;4.40;71.40;;;;;;4861939;29;20041;-73
2021/04/14 01:34:05;;;;;;;2.13;0.87;;;4.40;71.50;;;;;;4897512;29;20128;-73
2021/04/14 01:36:32;;;;;;;1.27;0.70;;;4.40;71.50;;;;;;4880696;29;20040;-73
2021/04/14 01:38:59;;;;;;;1.97;0.90;;;4.40;71.50;;;;;;4876074;29;20101;-71
2021/04/14 01:41:26;;;;;;;1.60;0.70;;;4.30;71.50;;;;;;4864313;29;20056;-71
2021/04/14 01:43:55;;;;;;;2.33;0.90;;;4.30;71.60;;;;;;4877484;29;20072;-71
2021/04/14 01:46:21;;;;;;;2.40;0.80;;;4.30;71.80;;;;;;4864178;29;20048;-71
2021/04/14 01:48:48;;;;;;;2.93;1.00;;;4.30;71.80;;;;;;4895745;29;20485;-71
2021/04/14 01:51:14;;;;;;;2.57;1.10;;;4.30;72.00;;;;;;4860802;29;20044;-71
2021/04/14 01:53:41;;;;;;;2.50;0.93;;;4.30;72.00;;;;;;4868134;29;20409;-71
2021/04/14 01:56:09;;;;;;;3.73;1.00;;;4.30;72.10;;;;;;4891229;29;20053;-71
2021/04/14 01:58:36;;;;;;;3.03;0.80;;;4.30;72.20;;;;;;4879416;29;20049;-71
2021/04/14 02:01:06;;;;;;;3.77;1.10;;;4.20;72.20;;;;;;4873546;29;20564;-71
2021/04/14 02:03:35;;;;;;;1.97;0.80;;;4.20;72.30;;;;;;4888557;29;20045;-71
2021/04/14 02:06:03;;;;;;;2.13;1.20;;;4.20;72.30;;;;;;4883695;29;20044;-71
2021/04/14 02:08:30;;;;;;;2.40;1.13;;;4.20;72.30;;;;;;4863981;29;20049;-71
2021/04/14 02:10:57;;;;;;;2.20;1.10;;;4.20;72.40;;;;;;4875724;29;20053;-71
2021/04/14 02:13:29;;;;;;;2.67;1.07;;;4.20;72.50;;;;;;4894679;29;20064;-71
2021/04/14 02:15:57;;;;;;;3.80;1.03;;;4.20;72.50;;;;;;4868720;29;20051;-71
2021/04/14 02:18:24;;;;;;;1.50;0.77;;;4.20;72.50;;;;;;4895615;29;20036;-71
2021/04/14 02:20:51;;;;;;;3.33;1.30;;;4.20;72.60;;;;;;4878707;29;20064;-71
2021/04/14 02:23:24;;;;;;;2.90;1.00;;;4.20;72.60;;;;;;4853653;29;20084;-71
2021/04/14 02:25:57;;;;;;;2.90;0.80;;;4.30;72.80;;;;;;4871677;29;20453;-71
2021/04/14 02:28:23;;;;;;;;;;;4.30;72.80;;;;;;4899554;29;20052;-71
2021/04/14 02:30:51;;;;;;;2.97;1.00;;;4.20;72.70;;;;;;4892715;29;20014;-71
2021/04/14 02:33:18;;;;;;;2.00;0.80;;;4.20;72.80;;;;;;4882824;29;20044;-71
2021/04/14 02:35:45;;;;;;;2.87;1.10;;;4.30;72.90;;;;;;4886980;29;20123;-71
2021/04/14 02:38:12;;;;;;;2.13;0.97;;;4.20;72.90;;;;;;4891034;29;20053;-71
2021/04/14 02:40:39;;;;;;;2.47;0.90;;;4.30;72.90;;;;;;4879232;29;20479;-71
2021/04/14 02:43:06;;;;;;;2.43;0.97;;;4.30;73.00;;;;;;4894915;29;20044;-71
2021/04/14 02:45:37;;;;;;;2.00;1.00;;;4.30;73.00;;;;;;4866963;29;20441;-71
2021/04/14 02:48:05;;;;;;;1.93;0.83;;;4.30;73.00;;;;;;4896220;29;20064;-71
2021/04/14 02:50:32;;;;;;;1.73;0.93;;;4.30;73.10;;;;;;4896980;29;20381;-71
2021/04/14 02:52:59;;;;;;;3.00;1.20;;;4.30;73.10;;;;;;4876204;29;20041;-70
2021/04/14 02:55:27;;;;;;;2.63;1.00;;;4.30;73.10;;;;;;4873952;29;20063;-71
2021/04/14 02:57:54;;;;;;;2.57;0.90;;;4.30;73.20;;;;;;4887343;29;20044;-70
2021/04/14 03:00:22;;;;;;;2.30;0.90;;;4.30;73.20;;;;;;4893249;29;20129;-70
2021/04/14 03:02:49;;;;;;;1.50;0.83;;;4.20;73.30;;;;;;4866554;29;20136;-70
2021/04/14 03:05:19;;;;;;;2.43;1.13;;;4.20;73.40;;;;;;4882100;29;20496;-71
2021/04/14 03:07:47;;;;;;;2.50;0.90;;;4.20;73.50;;;;;;4897964;29;20540;-70
2021/04/14 03:10:14;;;;;;;2.90;1.33;;;4.20;73.50;;;;;;4876201;29;20056;-71
2021/04/14 03:12:41;;;;;;;1.80;0.90;;;4.20;73.60;;;;;;4898771;29;20045;-71
2021/04/14 03:15:10;;;;;;;3.10;1.30;;;4.10;73.60;;;;;;4876750;29;20112;-71
2021/04/14 03:17:36;;;;;;;2.43;1.10;;;4.10;73.80;;;;;;4875480;29;20057;-71
2021/04/14 03:20:08;;;;;;;2.37;1.20;;;4.00;73.80;;;;;;4879848;29;20451;-70
2021/04/14 03:22:34;;;;;;;3.87;1.70;;;4.00;74.00;;;;;;4885136;29;20052;-71
2021/04/14 03:25:03;;;;;;;2.83;1.13;;;3.90;74.10;;;;;;4861799;29;20052;-70
2021/04/14 03:27:29;;;;;;;2.53;0.93;;;3.80;74.20;;;;;;4881520;29;20049;-70
2021/04/14 03:29:56;;;;;;;2.27;1.27;;;3.80;74.30;;;;;;4892342;29;20040;-70
2021/04/14 03:32:22;;;;;;;2.17;1.00;;;3.70;74.40;;;;;;4869592;29;20048;-71
2021/04/14 03:34:49;;;;;;;3.17;1.20;;;3.70;74.50;;;;;;4865204;29;20040;-70
2021/04/14 03:37:16;;;;;;;2.70;1.20;;;3.60;74.60;;;;;;4881273;29;20048;-71
2021/04/14 03:39:42;;;;;;;2.30;1.20;;;3.60;74.70;;;;;;4882975;29;20037;-70
2021/04/14 03:42:09;;;;;;;2.40;1.10;;;3.60;74.80;;;;;;4881464;29;20048;-72
2021/04/14 03:44:38;;;;;;;2.20;1.13;;;3.60;74.80;;;;;;4862502;29;20045;-73
2021/04/14 03:47:05;;;;;;;3.17;1.40;;;3.60;74.90;;;;;;4892682;29;20047;-74
2021/04/14 03:49:32;;;;;;;2.47;0.93;;;3.50;74.90;;;;;;4870225;29;20044;-73
2021/04/14 03:52:01;;;;;;;3.47;1.33;;;3.50;75.00;;;;;;4884190;29;20059;-73
2021/04/14 03:54:28;;;;;;;3.03;1.23;;;3.50;75.00;;;;;;4886520;29;20068;-73
2021/04/14 03:57:13;;;;;;;2.77;1.23;;;3.50;75.10;;;;;;4894228;29;20115;-72
2021/04/14 03:59:39;;;;;;;3.07;1.40;;;3.50;75.00;;;;;;4878851;29;20058;-71
2021/04/14 04:02:06;;;;;;;2.87;1.17;;;3.50;75.10;;;;;;4896420;29;20040;-71
2021/04/14 04:04:32;;;;;;;2.63;1.30;;;3.40;75.10;;;;;;4889491;29;20040;-70
2021/04/14 04:06:59;;;;;;;2.60;1.40;;;3.40;75.20;;;;;;4897830;29;20048;-70
2021/04/14 04:09:27;;;;;;;3.50;1.50;;;3.40;75.20;;;;;;4891381;29;20040;-70
2021/04/14 04:11:53;;;;;;;3.63;1.57;;;3.40;75.30;;;;;;4897629;29;20128;-70
2021/04/14 04:14:20;;;;;;;4.53;1.30;;;3.40;75.40;;;;;;4875125;29;20085;-70
2021/04/14 04:16:46;;;;;;;3.17;1.40;;;3.40;75.50;;;;;;4873363;29;20044;-70
2021/04/14 04:19:16;;;;;;;3.67;1.73;;;3.40;75.50;;;;;;4865385;29;20045;-70
2021/04/14 04:21:45;;;;;;;4.83;2.00;;;3.50;76.20;;;;;;4867937;29;20067;-70
2021/04/14 04:24:11;;;;;;;4.00;2.00;;;3.50;75.40;;;;;;4897376;29;20047;-70
2021/04/14 04:26:38;;;;;;;8.47;2.60;;;3.60;75.20;;;;;;4869066;29;20570;-70
2021/04/14 04:29:05;;;;;;;4.77;2.07;;;3.80;75.10;;;;;;4880317;29;20057;-70
2021/04/14 04:31:32;;;;;;;3.90;2.20;;;3.80;74.80;;;;;;4873194;29;20060;-71
2021/04/14 04:33:58;;;;;;;3.50;2.00;;;3.90;74.70;;;;;;4897040;29;20052;-70
2021/04/14 04:36:25;;;;;;;4.63;1.70;;;4.00;74.60;;;;;;4879001;29;20832;-70
2021/04/14 04:38:52;;;;;;;3.67;1.93;;;4.00;74.50;;;;;;4895255;29;20069;-70
2021/04/14 04:41:18;;;;;;;5.20;1.90;;;4.00;74.50;;;;;;4895571;29;20036;-70
2021/04/14 04:43:45;;;;;;;6.13;1.70;;;4.00;74.50;;;;;;4858962;29;20163;-69
2021/04/14 04:46:11;;;;;;;3.27;1.43;;;4.00;74.50;;;;;;4894863;29;20078;-70
2021/04/14 04:48:37;;;;;;;3.47;1.33;;;4.00;74.60;;;;;;4881420;29;20533;-70
2021/04/14 04:51:04;;;;;;;3.90;1.20;;;3.90;74.70;;;;;;4879810;29;20063;-70
2021/04/14 04:53:31;;;;;;;2.37;1.03;;;3.80;74.80;;;;;;4871508;29;20437;-70
2021/04/14 04:55:59;;;;;;;3.30;1.30;;;3.90;75.00;;;;;;4895318;29;20048;-70
2021/04/14 04:58:26;;;;;;;3.37;1.57;;;3.80;75.00;;;;;;4896817;29;20055;-70
2021/04/14 05:00:54;;;;;;;2.87;1.40;;;3.80;75.10;;;;;;4867406;29;20440;-70
2021/04/14 05:03:28;;;;;;;2.67;1.13;;;3.80;75.20;;;;;;4882359;29;20045;-71
2021/04/14 05:05:57;;;;;;;2.97;1.00;;;3.80;75.20;;;;;;4878698;29;20056;-71
2021/04/14 05:08:23;;;;;;;2.57;1.00;;;3.90;75.20;;;;;;4879554;29;20040;-73
2021/04/14 05:10:54;;;;;;;3.17;1.33;;;3.90;75.20;;;;;;4881099;29;20047;-74
2021/04/14 05:13:21;;;;;;;3.20;0.93;;;4.00;75.20;;;;;;4893028;29;20033;-73
2021/04/14 05:15:48;;;;;;;2.10;1.07;;;4.00;75.20;;;;;;4892290;29;20041;-73
2021/04/14 05:18:16;;;;;;;3.17;1.50;;;4.10;75.10;;;;;;4896802;29;20049;-73
2021/04/14 05:20:43;;;;;;;3.37;1.27;;;4.20;75.00;;;;;;4874498;29;20041;-74
2021/04/14 05:23:11;;;;;;;3.20;1.20;;;4.20;74.90;;;;;;4892516;29;20036;-70
2021/04/14 05:25:44;;;;;;;2.83;1.00;;;4.30;74.80;;;;;;4894907;29;20051;-70
2021/04/14 05:28:13;;;;;;;3.38;1.05;;;4.30;74.70;;;;;;4885861;29;20081;-70
2021/04/14 05:30:43;;;;;;;3.30;1.17;;;4.40;74.70;;;;;;4864333;29;20049;-70
2021/04/14 05:33:11;;;;;;;1.97;0.80;;;4.40;74.60;;;;;;4889773;29;20512;-69
2021/04/14 05:35:38;;;;;;;3.53;1.10;;;4.40;74.60;;;;;;4895550;29;20040;-70
2021/04/14 05:38:04;;;;;;;2.30;1.30;;;4.40;74.60;;;;;;4891237;29;20490;-70
2021/04/14 05:40:32;;;;;;;2.23;0.90;;;4.40;74.70;;;;;;4879066;29;20040;-70
2021/04/14 05:42:58;;;;;;;2.13;1.00;;;4.40;74.60;;;;;;4863882;29;20052;-71
2021/04/14 05:45:28;;;;;;;3.67;1.20;;;4.50;74.50;;;;;;4861520;29;20076;-71
2021/04/14 05:47:57;;;;;;;2.50;1.13;;;4.50;75.00;;;;;;4851125;29;20045;-71
2021/04/14 05:50:25;;;;;;;2.13;0.97;;;4.50;74.20;;;;;;4864205;29;20444;-72
2021/04/14 05:52:52;;;;;;;3.10;1.30;;;4.60;74.90;;;;;;4871799;29;20041;-71
2021/04/14 05:55:20;;;;;;;2.50;1.03;;;4.60;74.20;;;;;;4894178;29;20051;-71
2021/04/14 05:57:47;;;;;;;2.87;1.20;;;4.70;74.10;;;;;;4899694;29;20074;-71
2021/04/14 06:00:15;;;;;;;2.70;1.07;;;4.80;74.10;;;;;;4878629;29;20073;-71
2021/04/14 06:02:42;;;;;;;3.40;1.73;;;4.90;74.00;;;;;;4898184;29;20437;-72
2021/04/14 06:05:12;;;;;;;3.20;1.53;;;5.00;73.90;;;;;;4891759;29;20063;-72
2021/04/14 06:07:39;;;;;;;2.60;1.13;;;5.20;73.80;;;;;;4877945;29;20373;-71
2021/04/14 06:10:07;;;;;;;4.17;1.40;;;5.30;73.80;;;;;;4890855;29;20494;-71
2021/04/14 06:12:34;;;;;;;3.40;1.37;;;5.40;73.70;;;;;;4889677;29;20045;-71
2021/04/14 06:15:00;;;;;;;4.33;1.70;;;5.40;73.50;;;;;;4882000;29;20056;-71
2021/04/14 06:17:27;;;;;;;4.30;1.53;;;5.50;73.50;;;;;;4883172;29;20044;-70
2021/04/14 06:19:54;;;;;;;3.03;1.47;;;5.60;73.50;;;;;;4897835;29;20055;-71
2021/04/14 06:22:20;;;;;;;3.73;1.33;;;5.60;73.50;;;;;;4899754;29;20116;-71
2021/04/14 06:24:47;;;;;;;3.33;1.60;;;5.70;73.50;;;;;;4873799;29;20032;-71
2021/04/14 06:27:26;;;;;;;3.50;1.40;;;5.70;73.40;;;;;;4879681;29;20481;-70
2021/04/14 06:29:53;;;;;;;3.73;1.90;;;5.80;73.40;;;;;;4888287;29;20067;-71
2021/04/14 06:32:19;;;;;;;5.20;2.33;;;5.80;73.80;;;;;;4874936;29;20045;-71
2021/04/14 06:34:46;;;;;;;3.73;2.03;;;5.90;73.10;;;;;;4900075;29;20041;-70
2021/04/14 06:37:13;;;;;;;5.47;2.30;;;5.90;73.00;;;;;;4863907;29;20486;-70
2021/04/14 06:39:39;;;;;;;4.23;2.17;;;6.00;72.90;;;;;;4866759;29;20366;-71
2021/04/14 06:42:33;;;;;;;4.37;1.97;;;6.00;73.00;;;;;;4881621;29;20100;-70
2021/04/14 06:45:10;;;;;;;3.60;1.60;;;6.00;72.90;;;;;;4876967;29;20052;-70
2021/04/14 06:47:50;;;;;;;4.50;2.00;;;6.00;72.90;;;;;;4896077;29;20060;-70
2021/04/14 06:50:26;;;;;;;4.07;1.63;;;6.10;72.90;;;;;;4870124;29;20454;-71
2021/04/14 06:53:05;;;;;;;4.17;2.00;;;6.10;72.80;;;;;;4887400;29;20188;-70
2021/04/14 06:55:56;;;;;;;3.67;1.60;;;6.10;72.90;;;;;;4898733;29;20091;-71
2021/04/14 06:58:33;;;;;;;3.70;1.63;;;6.10;72.80;;;;;;4898900;29;20721;-71
2021/04/14 07:01:08;;;;;;;3.90;2.10;;;6.10;72.80;;;;;;4898778;29;20512;-70
2021/04/14 07:03:51;;;;;;;4.07;1.93;;;6.20;72.70;;;;;;4897020;29;20096;-71
2021/04/14 07:06:22;;;;;;;4.27;1.80;;;6.30;72.70;;;;;;4894774;29;20037;-71
2021/04/14 07:09:29;;;;;;;3.50;1.30;;;6.30;72.60;;;;;;4875552;29;20057;-71
2021/04/14 07:11:56;;;;;;;4.60;1.63;;;6.30;72.50;;;;;;4881817;29;20076;-71
2021/04/14 07:14:25;;;;;;;3.60;1.83;;;6.40;72.50;;;;;;4866577;29;20045;-70
2021/04/14 07:17:32;;;;;;;4.30;1.53;;;6.50;72.30;;;;;;4898725;29;20048;-71
2021/04/14 07:20:17;;;;;;;4.70;2.00;;;6.70;72.20;;;;;;4895210;29;20140;-71
2021/04/14 07:23:12;;;;;;;3.93;1.60;;;6.90;71.90;;;;;;4880459;29;20143;-70
2021/04/14 07:26:07;;;;;;;4.53;1.60;;;7.20;71.30;;;;;;4869734;29;20052;-71
2021/04/14 07:28:39;;;;;;;3.87;1.67;;;7.50;71.00;;;;;;4892779;29;20037;-71
2021/04/14 07:31:18;;;;;;;6.85;2.40;;;7.60;70.70;;;;;;4898579;29;20509;-70
2021/04/14 07:34:02;;;;;;;4.63;2.20;;;7.50;70.40;;;;;;4886090;29;20049;-71
2021/04/14 07:37:01;;;;;;;4.87;2.27;;;7.40;70.40;;;;;;4879742;29;20052;-71
2021/04/14 07:39:54;;;;;;;4.87;2.20;;;7.30;70.80;;;;;;4885637;29;20048;-70
2021/04/14 07:42:30;;;;;;;5.05;1.98;;;7.10;70.90;;;;;;4892551;29;20073;-71
2021/04/14 07:45:16;;;;;;;4.80;2.63;;;7.00;71.20;;;;;;4880697;29;20072;-70
2021/04/14 07:47:51;;;;;;;5.10;2.20;;;7.00;71.40;;;;;;4870013;29;20045;-70
2021/04/14 07:50:22;;;;;;;3.83;1.90;;;6.90;71.40;;;;;;4881032;29;20049;-73
2021/04/14 07:52:48;;;;;;;4.07;1.70;;;6.80;71.60;;;;;;4870985;29;20053;-74
2021/04/14 07:55:24;;;;;;;5.17;2.00;;;6.70;72.10;;;;;;4861761;29;20053;-73
2021/04/14 07:57:51;;;;;;;4.00;2.17;;;6.70;71.80;;;;;;4895665;29;20089;-72
2021/04/14 08:00:26;;;;;;;5.13;1.93;;;6.70;71.80;;;;;;4874722;29;20051;-72
2021/04/14 08:03:17;;;;;;;3.40;1.30;;;6.70;71.90;;;;;;4869492;29;20048;-72
2021/04/14 08:05:44;;;;;;;4.30;1.90;;;6.80;72.00;;;;;;4897895;29;20480;-72
2021/04/14 08:08:17;;;;;;;4.13;1.50;;;6.80;71.90;;;;;;4881299;29;20501;-72
2021/04/14 08:10:58;;;;;;;3.10;1.40;;;6.90;71.90;;;;;;4889306;29;20522;-72
2021/04/14 08:13:30;;;;;;;3.77;1.50;;;6.90;71.80;;;;;;4897603;29;20412;-72
2021/04/14 08:15:57;;;;;;;3.83;1.27;;;6.90;71.80;;;;;;4897661;29;20449;-72
2021/04/14 08:18:30;;;;;;;4.17;1.23;;;6.90;72.00;;;;;;4897588;29;20048;-72
2021/04/14 08:21:28;;;;;;;5.20;1.97;;;6.90;71.90;;;;;;4879443;29;20772;-72
2021/04/14 08:24:34;;;;;;;3.37;1.60;;;6.90;71.90;;;;;;4866802;29;20215;-77
2021/04/14 08:27:24;;;;;;;4.33;1.50;;;6.90;72.10;;;;;;4896208;29;20044;-74
2021/04/14 08:30:05;;;;;;;2.63;1.27;;;7.00;72.10;;;;;;4874660;29;20059;-72
2021/04/14 08:32:44;;;;;;;4.10;1.60;;;7.20;71.90;;;;;;4885180;29;20047;-73
2021/04/14 08:35:32;;;;;;;5.83;2.63;;;7.40;71.70;;;;;;4880618;29;20044;-75
2021/04/14 08:38:13;;;;;;;4.70;2.37;;;7.60;71.10;;;;;;4889615;29;20048;-76
2021/04/14 08:40:53;;;;;;;5.43;3.10;;;7.80;70.70;;;;;;4874003;29;20056;-73
2021/04/14 08:43:23;;;;;;;5.00;2.77;;;8.00;70.40;;;;;;4899573;29;20393;-73
2021/04/14 08:46:19;;;;;;;4.77;2.17;;;8.20;70.00;;;;;;4902157;29;20044;-75
2021/04/14 08:48:55;;;;;;;5.70;2.87;;;8.40;69.70;;;;;;4885837;29;20048;-76
2021/04/14 08:51:24;;;;;;;5.47;2.50;;;8.50;69.60;;;;;;4881278;29;20048;-74
2021/04/14 08:53:55;;;;;;;4.87;2.07;;;8.50;69.60;;;;;;4872856;29;20041;-74
2021/04/14 08:56:26;;;;;;;4.55;2.00;;;8.70;69.50;;;;;;4869610;29;20045;-75
2021/04/14 08:58:56;;;;;;;4.67;2.37;;;9.00;69.30;;;;;;4886019;29;20129;-72
2021/04/14 09:01:32;;;;;;;7.03;4.10;;;9.20;68.90;;;;;;4891971;29;20445;-71
2021/04/14 09:04:03;;;;;;;6.65;3.70;;;9.40;69.10;;;;;;4879408;29;20048;-72
2021/04/14 09:06:32;;;;;;;9.77;4.90;;;9.50;68.00;;;;;;4853459;29;20040;-71
2021/04/14 09:09:08;;;;;;;8.30;4.93;;;9.50;67.20;;;;;;4877523;29;20052;-72
2021/04/14 09:11:36;;;;;;;8.68;5.03;;;9.50;67.30;;;;;;4868775;29;20033;-75
2021/04/14 09:14:20;;;;;;;6.25;3.42;;;9.40;67.10;;;;;;4890879;29;20041;-74
2021/04/14 09:16:56;;;;;;;6.80;4.40;;;9.40;67.50;;;;;;4872503;29;20045;-71
2021/04/14 09:19:28;;;;;;;7.32;4.18;;;9.30;67.40;;;;;;4853064;29;20113;-74
2021/04/14 09:22:02;;;;;;;8.15;4.53;;;9.00;67.00;;;;;;4895654;29;20044;-70
2021/04/14 09:24:34;;;;;;;6.78;4.22;;;8.80;67.30;;;;;;4885021;29;20037;-70
2021/04/14 09:27:02;;;;;;;8.98;4.47;;;8.70;67.60;;;;;;4893792;29;20116;-71
2021/04/14 09:29:50;;;;;;;8.93;5.00;;;8.70;67.20;;;;;;4878289;29;20045;-75
2021/04/14 09:32:18;;;;;;;9.02;5.35;;;8.70;67.30;;;;;;4895216;29;20151;-75
2021/04/14 09:34:49;;;;;;;9.43;6.00;;;8.70;67.30;;;;;;4873414;29;20056;-74
2021/04/14 09:37:21;;;;;;;7.80;5.53;;;8.70;67.10;;;;;;4896477;29;20072;-74
2021/04/14 09:40:01;;;;;;;10.02;5.38;;;8.60;67.10;;;;;;4897429;29;20453;-74
2021/04/14 09:42:42;;;;;;;7.73;5.20;;;8.40;67.30;;;;;;4896526;29;20040;-75
2021/04/14 09:45:14;;;;;;;9.37;4.70;;;8.20;67.60;;;;;;4878758;29;20045;-75
2021/04/14 09:47:41;;;;;;;8.60;5.10;;;8.10;68.00;;;;;;4866946;29;20060;-75
2021/04/14 09:50:14;;;;;;;8.17;5.03;;;8.00;68.10;;;;;;4881511;29;20104;-76
2021/04/14 09:52:43;;;;;;;8.15;5.03;;;7.90;68.30;;;;;;4887840;29;20041;-75
2021/04/14 09:55:15;;;;;;;9.80;5.07;;;7.80;68.40;;;;;;4879980;29;20119;-75
2021/04/14 09:57:45;;;;;;;7.53;4.15;;;7.70;68.50;;;;;;4894861;29;20097;-75
2021/04/14 10:00:27;;;;;;;8.83;5.23;;;7.70;68.70;;;;;;4894524;29;20053;-74
2021/04/14 10:02:57;;;;;;;9.57;5.20;;;7.60;68.70;;;;;;4896587;29;20048;-74
2021/04/14 10:05:29;;;;;;;10.33;5.57;;;7.60;68.90;;;;;;4892455;29;20055;-74
2021/04/14 10:08:00;;;;;;;9.37;5.87;;;7.50;69.10;;;;;;4880903;29;20079;-74
2021/04/14 10:10:27;;;;;;;9.57;5.77;;;7.40;69.40;;;;;;4887960;29;20044;-74
2021/04/14 10:12:54;;;;;;;10.50;6.23;;;7.30;69.70;;;;;;4897506;29;20487;-74
2021/04/14 10:15:34;;;;;;;10.30;6.63;;;7.10;70.00;;;;;;4866701;29;20048;-75
2021/04/14 10:18:11;;;;;;;10.63;6.43;;;7.00;70.50;;;;;;4897406;29;20401;-74
2021/04/14 10:20:39;;;;;;;10.80;6.73;;;6.90;70.80;;;;;;4897899;29;20052;-75
2021/04/14 10:23:11;;;;;;;11.13;6.30;;;6.60;71.50;;;;;;4882256;29;20044;-75
2021/04/14 10:25:41;;;;;;;9.87;5.60;;;6.40;72.10;;;;;;4885707;29;20049;-75
2021/04/14 10:28:20;;;;;;;8.57;5.00;;;6.20;72.60;;;;;;4886994;29;20128;-75
2021/04/14 10:30:59;;;;;;;7.00;4.37;;;6.10;73.30;;;;;;4895489;29;20892;-74
2021/04/14 10:33:26;;;;;;;7.73;4.23;;;6.10;73.50;;;;;;4877539;29;20408;-75
2021/04/14 10:35:54;;;;;;;6.07;3.17;;;6.00;73.50;;;;;;4892722;29;20509;-75
2021/04/14 10:38:32;;;;;;;5.83;2.97;;;6.00;73.70;;;;;;4879391;29;20500;-75
2021/04/14 10:41:11;;;;;;;8.20;4.10;;;6.10;74.10;;;;;;4885850;29;20434;-74
2021/04/14 10:43:37;;;;;;;6.00;3.50;;;6.00;74.30;;;;;;4898798;29;20041;-75
2021/04/14 10:46:09;;;;;;;4.90;2.97;;;5.90;74.60;;;;;;4897499;29;20388;-77
2021/04/14 10:48:44;;;;;;;6.73;3.53;;;6.00;74.90;;;;;;4910657;29;20048;-74
2021/04/14 10:51:22;;;;;;;7.63;4.07;;;6.00;75.10;;;;;;4873753;29;20403;-74
2021/04/14 10:53:51;;;;;;;6.30;4.43;;;6.10;75.40;;;;;;4884101;29;20055;-76
2021/04/14 10:56:27;;;;;;;7.23;4.43;;;6.20;75.50;;;;;;4878875;29;20433;-76
2021/04/14 10:58:56;;;;;;;6.37;4.33;;;6.30;76.10;;;;;;4884358;29;20104;-77
2021/04/14 11:01:37;;;;;;;9.50;5.03;;;6.60;76.20;;;;;;4896334;29;20084;-72
2021/04/14 11:04:10;;;;;;;5.97;3.87;;;7.10;75.70;;;;;;4879603;29;20049;-72
2021/04/14 11:06:37;;;;;;;;;;;7.30;75.30;;;;;;4880622;29;20073;-72
2021/04/14 11:09:07;;;;;;;6.23;3.13;;;7.50;75.40;;;;;;4864268;29;19938;-72
2021/04/14 11:11:36;;;;;;;5.17;2.83;;;7.70;75.40;;;;;;4873464;29;20103;-73
2021/04/14 11:14:06;;;;;;;4.97;2.47;;;7.80;75.50;;;;;;4887020;29;20064;-74
2021/04/14 11:16:36;;;;;;;5.07;2.80;;;7.80;75.60;;;;;;4884095;29;20045;-74
2021/04/14 11:19:19;;;;;;;5.67;3.00;;;7.80;75.70;;;;;;4876982;29;20493;-74
2021/04/14 11:21:47;;;;;;;6.25;3.05;;;7.80;76.10;;;;;;4893856;29;20044;-73
2021/04/14 11:24:18;;;;;;;4.53;2.63;;;7.80;76.40;;;;;;4869314;29;20052;-73
2021/04/14 11:26:59;;;;;;;4.45;2.38;;;8.00;76.60;;;;;;4875176;29;20061;-74
2021/04/14 11:29:33;;;;;;;4.00;2.43;;;8.40;76.20;;;;;;4884772;29;20461;-72
2021/04/14 11:32:11;;;;;;;5.18;2.70;;;8.60;75.70;;;;;;4875382;29;20386;-73
2021/04/14 11:34:38;;;;;;;5.63;3.23;;;8.80;75.30;;;;;;4882239;29;20056;-73
2021/04/14 11:37:13;;;;;;;5.53;3.20;;;9.00;74.90;;;;;;4882011;29;20081;-73
2021/04/14 11:39:59;;;;;;;4.90;3.03;;;9.40;74.20;;;;;;4899044;29;20089;-76
2021/04/14 11:42:44;;;;;;;6.10;3.28;;;10.30;73.30;;;;;;4885578;29;20072;-77
2021/04/14 11:45:21;;;;;;;7.18;3.63;;;11.20;71.10;;;;;;4898518;29;20620;-77
2021/04/14 11:47:51;;;;;;;6.25;3.70;;;11.70;70.00;;;;;;4862529;29;20047;-77
2021/04/14 11:50:28;;;;;;;6.20;4.22;;;11.70;69.70;;;;;;4873403;29;20047;-78
2021/04/14 11:53:00;;;;;;;4.97;3.25;;;11.80;69.70;;;;;;4882714;29;20063;-77
2021/04/14 11:55:34;;;;;;;6.53;3.97;;;11.50;69.80;;;;;;4899196;29;20123;-77
2021/04/14 11:58:27;;;;;;;8.27;4.63;;;10.90;70.40;;;;;;4886428;29;20504;-76
2021/04/14 12:00:53;;;;;;;;;;;10.30;71.10;;;;;;4900087;29;20034;-76
2021/04/14 12:03:20;;;;;;;5.60;3.88;;;9.80;72.20;;;;;;4879885;29;19979;-76
2021/04/14 12:05:55;;;;;;;6.45;4.00;;;9.60;72.70;;;;;;4894793;29;20092;-76
2021/04/14 12:08:22;;;;;;;6.72;4.30;;;9.30;72.80;;;;;;4899148;29;20041;-75
2021/04/14 12:10:48;;;;;;;7.78;4.10;;;9.20;73.00;;;;;;4898657;29;20049;-76
2021/04/14 12:13:16;;;;;;;5.35;3.30;;;9.20;73.50;;;;;;4898779;29;20051;-73
2021/04/14 12:15:42;;;;;;;6.03;3.80;;;9.30;74.00;;;;;;4898207;29;20076;-76
2021/04/14 12:18:12;;;;;;;6.20;3.20;;;9.40;73.20;;;;;;4897874;29;20052;-74
2021/04/14 12:20:39;;;;;;;6.28;3.55;;;9.30;73.20;;;;;;4861312;29;20423;-75
2021/04/14 12:23:05;;;;;;;4.90;3.03;;;9.40;73.40;;;;;;4898282;29;20045;-76
2021/04/14 12:25:32;;;;;;;4.67;2.63;;;9.50;73.30;;;;;;4893239;29;20071;-74
2021/04/14 12:27:58;;;;;;;3.73;2.27;;;9.50;73.40;;;;;;4897382;29;20048;-74
2021/04/14 12:30:27;;;;;;;4.82;2.67;;;9.60;73.50;;;;;;4880943;29;20124;-75
2021/04/14 12:32:56;;;;;;;4.60;2.55;;;9.70;72.60;;;;;;4878906;29;20056;-80
2021/04/14 12:35:25;;;;;;;5.35;2.70;;;9.70;72.90;;;;;;4881680;29;20045;-77
2021/04/14 12:37:52;;;;;;;5.00;2.35;;;9.80;73.10;;;;;;4894937;29;20045;-76
2021/04/14 12:40:19;;;;;;;4.35;2.58;;;9.90;72.00;;;;;;4896462;29;20072;-76
2021/04/14 12:42:54;;;;;;;5.47;2.67;;;9.90;71.90;;;;;;4864258;29;20052;-76
2021/04/14 12:45:48;;;;;;;4.85;2.25;;;10.00;71.70;;;;;;4858846;29;20093;-76
2021/04/14 12:48:18;;;;;;;3.40;1.80;;;10.10;71.50;;;;;;4867218;29;20520;-77
2021/04/14 12:51:16;;;;;;;3.17;2.08;;;10.30;71.80;;;;;;4876503;29;20045;-75
2021/04/14 12:53:49;;;;;;;3.10;1.65;;;10.30;70.70;;;;;;4875711;29;20067;-76
2021/04/14 12:56:24;;;;;;;3.40;1.50;;;10.40;71.20;;;;;;4870129;29;20139;-77
2021/04/14 12:58:53;;;;;;;2.65;1.27;;;10.60;71.10;;;;;;4885590;29;20123;-76
2021/04/14 13:01:20;;;;;;;2.08;1.00;;;10.50;70.70;;;;;;4870846;29;20112;-75
2021/04/14 13:03:57;;;;;;;4.07;1.05;;;10.50;70.90;;;;;;4871701;29;20059;-76
2021/04/14 13:06:52;;;;;;;2.58;1.08;;;10.40;70.50;;;;;;4892490;29;20029;-76
2021/04/14 13:09:21;;;;;;;1.38;0.80;;;10.20;70.30;;;;;;4894433;29;20120;-76
2021/04/14 13:12:08;;;;;;;2.92;0.98;;;10.20;70.60;;;;;;4888525;29;20505;-75
2021/04/14 13:14:35;;;;;;;2.55;0.95;;;10.20;70.60;;;;;;4870670;29;20120;-77
2021/04/14 13:17:12;;;;;;;2.60;0.80;;;10.10;71.50;;;;;;4892845;29;20056;-75
2021/04/14 13:19:41;;;;;;;1.95;0.80;;;10.20;69.80;;;;;;4873307;29;20115;-77
2021/04/14 13:22:38;;;;;;;2.35;0.88;;;10.30;70.00;;;;;;4878956;29;20048;-77